sensor_id;sensor_type;location;lat;lon;timestamp;temperature;humidity
39777;DHT22;25453;48.162;14.510;2022-07-11T00:02:16;19.00;53.50
39777;DHT22;25453;48.162;14.510;2022-07-11T00:04:43;18.90;53.50
39777;DHT22;25453;48.162;14.510;2022-07-11T00:07:10;18.90;53.70
39777;DHT22;25453;48.162;14.510;2022-07-11T00:09:39;18.80;54.00
39777;DHT22;25453;48.162;14.510;2022-07-11T00:12:07;18.80;54.20
39777;DHT22;25453;48.162;14.510;2022-07-11T00:14:34;18.80;54.40
39777;DHT22;25453;48.162;14.510;2022-07-11T00:17:02;18.80;54.40
39777;DHT22;25453;48.162;14.510;2022-07-11T00:19:29;18.80;54.30
39777;DHT22;25453;48.162;14.510;2022-07-11T00:21:56;18.80;54.40
39777;DHT22;25453;48.162;14.510;2022-07-11T00:24:23;18.80;54.40
39777;DHT22;25453;48.162;14.510;2022-07-11T00:26:52;18.80;54.30
39777;DHT22;25453;48.162;14.510;2022-07-11T00:29:19;18.80;54.20
39777;DHT22;25453;48.162;14.510;2022-07-11T00:31:46;18.90;54.30
39777;DHT22;25453;48.162;14.510;2022-07-11T00:34:13;18.90;54.30
39777;DHT22;25453;48.162;14.510;2022-07-11T00:36:41;18.90;54.30
39777;DHT22;25453;48.162;14.510;2022-07-11T00:39:08;18.90;54.20
39777;DHT22;25453;48.162;14.510;2022-07-11T00:41:36;18.90;54.20
39777;DHT22;25453;48.162;14.510;2022-07-11T00:44:03;18.80;54.10
39777;DHT22;25453;48.162;14.510;2022-07-11T00:46:30;18.80;54.10
39777;DHT22;25453;48.162;14.510;2022-07-11T00:48:58;18.80;54.20
39777;DHT22;25453;48.162;14.510;2022-07-11T00:51:26;18.80;54.30
39777;DHT22;25453;48.162;14.510;2022-07-11T00:53:54;18.80;54.20
39777;DHT22;25453;48.162;14.510;2022-07-11T00:56:26;18.90;54.20
39777;DHT22;25453;48.162;14.510;2022-07-11T00:58:53;18.90;54.20
39777;DHT22;25453;48.162;14.510;2022-07-11T01:01:21;18.90;54.10
39777;DHT22;25453;48.162;14.510;2022-07-11T01:03:49;18.90;54.00
39777;DHT22;25453;48.162;14.510;2022-07-11T01:06:16;18.90;54.00
39777;DHT22;25453;48.162;14.510;2022-07-11T01:08:44;18.80;54.20
39777;DHT22;25453;48.162;14.510;2022-07-11T01:11:12;18.80;54.30
39777;DHT22;25453;48.162;14.510;2022-07-11T01:13:42;18.80;54.30
39777;DHT22;25453;48.162;14.510;2022-07-11T01:16:15;18.80;54.40
39777;DHT22;25453;48.162;14.510;2022-07-11T01:18:43;18.80;54.60
39777;DHT22;25453;48.162;14.510;2022-07-11T01:21:17;18.70;54.40
39777;DHT22;25453;48.162;14.510;2022-07-11T01:23:48;18.70;54.60
39777;DHT22;25453;48.162;14.510;2022-07-11T01:26:16;18.60;54.60
39777;DHT22;25453;48.162;14.510;2022-07-11T01:28:44;18.60;54.60
39777;DHT22;25453;48.162;14.510;2022-07-11T01:31:11;18.60;54.60
39777;DHT22;25453;48.162;14.510;2022-07-11T01:33:39;18.60;54.70
39777;DHT22;25453;48.162;14.510;2022-07-11T01:36:07;18.60;54.50
39777;DHT22;25453;48.162;14.510;2022-07-11T01:38:34;18.50;54.50
39777;DHT22;25453;48.162;14.510;2022-07-11T01:41:01;18.50;54.60
39777;DHT22;25453;48.162;14.510;2022-07-11T01:43:29;18.50;54.80
39777;DHT22;25453;48.162;14.510;2022-07-11T01:45:56;18.40;54.80
39777;DHT22;25453;48.162;14.510;2022-07-11T01:48:23;18.40;54.80
39777;DHT22;25453;48.162;14.510;2022-07-11T01:50:50;18.40;54.80
39777;DHT22;25453;48.162;14.510;2022-07-11T01:53:18;18.40;54.80
39777;DHT22;25453;48.162;14.510;2022-07-11T01:55:45;18.40;54.80
39777;DHT22;25453;48.162;14.510;2022-07-11T01:58:32;18.40;54.80
39777;DHT22;25453;48.162;14.510;2022-07-11T02:01:00;18.40;54.60
39777;DHT22;25453;48.162;14.510;2022-07-11T02:03:27;18.30;54.80
39777;DHT22;25453;48.162;14.510;2022-07-11T02:05:54;18.20;55.00
39777;DHT22;25453;48.162;14.510;2022-07-11T02:08:21;18.10;55.10
39777;DHT22;25453;48.162;14.510;2022-07-11T02:10:49;18.10;55.20
39777;DHT22;25453;48.162;14.510;2022-07-11T02:13:17;18.00;55.20
39777;DHT22;25453;48.162;14.510;2022-07-11T02:15:44;18.00;55.30
39777;DHT22;25453;48.162;14.510;2022-07-11T02:18:13;18.00;55.40
39777;DHT22;25453;48.162;14.510;2022-07-11T02:20:41;17.90;55.60
39777;DHT22;25453;48.162;14.510;2022-07-11T02:23:08;17.90;55.70
39777;DHT22;25453;48.162;14.510;2022-07-11T02:25:36;17.90;55.70
39777;DHT22;25453;48.162;14.510;2022-07-11T02:28:06;17.90;55.80
39777;DHT22;25453;48.162;14.510;2022-07-11T02:30:38;17.90;55.90
39777;DHT22;25453;48.162;14.510;2022-07-11T02:33:06;17.90;56.00
39777;DHT22;25453;48.162;14.510;2022-07-11T02:35:46;17.90;56.00
39777;DHT22;25453;48.162;14.510;2022-07-11T02:38:14;17.90;56.10
39777;DHT22;25453;48.162;14.510;2022-07-11T02:40:42;18.00;56.20
39777;DHT22;25453;48.162;14.510;2022-07-11T02:43:11;18.00;56.40
39777;DHT22;25453;48.162;14.510;2022-07-11T02:45:39;18.10;56.40
39777;DHT22;25453;48.162;14.510;2022-07-11T02:48:06;18.10;56.40
39777;DHT22;25453;48.162;14.510;2022-07-11T02:50:33;18.10;56.30
39777;DHT22;25453;48.162;14.510;2022-07-11T02:53:00;18.20;56.20
39777;DHT22;25453;48.162;14.510;2022-07-11T02:55:27;18.20;56.00
39777;DHT22;25453;48.162;14.510;2022-07-11T02:57:54;18.10;56.10
39777;DHT22;25453;48.162;14.510;2022-07-11T03:00:21;18.20;56.20
39777;DHT22;25453;48.162;14.510;2022-07-11T03:02:48;18.20;56.20
39777;DHT22;25453;48.162;14.510;2022-07-11T03:05:15;18.30;56.20
39777;DHT22;25453;48.162;14.510;2022-07-11T03:07:43;18.30;56.00
39777;DHT22;25453;48.162;14.510;2022-07-11T03:10:10;18.30;56.00
39777;DHT22;25453;48.162;14.510;2022-07-11T03:12:37;18.30;56.00
39777;DHT22;25453;48.162;14.510;2022-07-11T03:15:05;18.30;55.90
39777;DHT22;25453;48.162;14.510;2022-07-11T03:17:33;18.30;56.00
39777;DHT22;25453;48.162;14.510;2022-07-11T03:20:00;18.30;56.00
39777;DHT22;25453;48.162;14.510;2022-07-11T03:22:27;18.30;56.00
39777;DHT22;25453;48.162;14.510;2022-07-11T03:24:54;18.30;56.10
39777;DHT22;25453;48.162;14.510;2022-07-11T03:27:21;18.30;55.90
39777;DHT22;25453;48.162;14.510;2022-07-11T03:29:49;18.30;56.00
39777;DHT22;25453;48.162;14.510;2022-07-11T03:32:16;18.20;56.20
39777;DHT22;25453;48.162;14.510;2022-07-11T03:34:53;18.20;56.20
39777;DHT22;25453;48.162;14.510;2022-07-11T03:37:39;18.10;56.40
39777;DHT22;25453;48.162;14.510;2022-07-11T03:40:07;18.00;56.60
39777;DHT22;25453;48.162;14.510;2022-07-11T03:42:35;18.00;56.80
39777;DHT22;25453;48.162;14.510;2022-07-11T03:45:02;18.00;57.00
39777;DHT22;25453;48.162;14.510;2022-07-11T03:47:29;18.10;57.10
39777;DHT22;25453;48.162;14.510;2022-07-11T03:49:56;18.00;57.10
39777;DHT22;25453;48.162;14.510;2022-07-11T03:52:23;18.00;57.30
39777;DHT22;25453;48.162;14.510;2022-07-11T03:54:50;18.00;57.30
39777;DHT22;25453;48.162;14.510;2022-07-11T03:57:17;18.10;57.30
39777;DHT22;25453;48.162;14.510;2022-07-11T03:59:45;18.10;57.30
39777;DHT22;25453;48.162;14.510;2022-07-11T04:02:12;18.20;57.30
39777;DHT22;25453;48.162;14.510;2022-07-11T04:04:39;18.20;57.30
39777;DHT22;25453;48.162;14.510;2022-07-11T04:07:06;18.20;57.30
39777;DHT22;25453;48.162;14.510;2022-07-11T04:09:33;18.30;57.10
39777;DHT22;25453;48.162;14.510;2022-07-11T04:12:00;18.30;57.10
39777;DHT22;25453;48.162;14.510;2022-07-11T04:14:27;18.30;57.10
39777;DHT22;25453;48.162;14.510;2022-07-11T04:16:54;18.30;57.00
39777;DHT22;25453;48.162;14.510;2022-07-11T04:19:21;18.30;57.10
39777;DHT22;25453;48.162;14.510;2022-07-11T04:21:50;18.30;57.00
39777;DHT22;25453;48.162;14.510;2022-07-11T04:24:17;18.30;56.90
39777;DHT22;25453;48.162;14.510;2022-07-11T04:26:44;18.30;57.00
39777;DHT22;25453;48.162;14.510;2022-07-11T04:29:11;18.30;56.90
39777;DHT22;25453;48.162;14.510;2022-07-11T04:31:38;18.30;57.00
39777;DHT22;25453;48.162;14.510;2022-07-11T04:34:05;18.30;57.10
39777;DHT22;25453;48.162;14.510;2022-07-11T04:36:32;18.30;57.00
39777;DHT22;25453;48.162;14.510;2022-07-11T04:38:59;18.30;57.00
39777;DHT22;25453;48.162;14.510;2022-07-11T04:41:26;18.30;56.90
39777;DHT22;25453;48.162;14.510;2022-07-11T04:43:53;18.30;57.00
39777;DHT22;25453;48.162;14.510;2022-07-11T04:46:20;18.30;57.10
39777;DHT22;25453;48.162;14.510;2022-07-11T04:48:48;18.40;57.00
39777;DHT22;25453;48.162;14.510;2022-07-11T04:51:15;18.40;57.00
39777;DHT22;25453;48.162;14.510;2022-07-11T04:53:43;18.40;56.70
39777;DHT22;25453;48.162;14.510;2022-07-11T04:56:10;18.40;56.70
39777;DHT22;25453;48.162;14.510;2022-07-11T04:58:37;18.40;56.70
39777;DHT22;25453;48.162;14.510;2022-07-11T05:01:04;18.40;56.60
39777;DHT22;25453;48.162;14.510;2022-07-11T05:03:32;18.40;56.70
39777;DHT22;25453;48.162;14.510;2022-07-11T05:05:59;18.40;56.80
39777;DHT22;25453;48.162;14.510;2022-07-11T05:08:26;18.40;56.60
39777;DHT22;25453;48.162;14.510;2022-07-11T05:10:54;18.40;56.50
39777;DHT22;25453;48.162;14.510;2022-07-11T05:13:22;18.40;56.50
39777;DHT22;25453;48.162;14.510;2022-07-11T05:15:49;18.50;56.50
39777;DHT22;25453;48.162;14.510;2022-07-11T05:18:16;18.50;56.50
39777;DHT22;25453;48.162;14.510;2022-07-11T05:20:43;18.60;56.40
39777;DHT22;25453;48.162;14.510;2022-07-11T05:23:10;18.60;56.30
39777;DHT22;25453;48.162;14.510;2022-07-11T05:25:37;18.60;56.30
39777;DHT22;25453;48.162;14.510;2022-07-11T05:28:04;18.60;56.30
39777;DHT22;25453;48.162;14.510;2022-07-11T05:30:31;18.60;56.30
39777;DHT22;25453;48.162;14.510;2022-07-11T05:32:58;18.70;56.30
39777;DHT22;25453;48.162;14.510;2022-07-11T05:35:25;18.70;56.40
39777;DHT22;25453;48.162;14.510;2022-07-11T05:37:52;18.70;56.40
39777;DHT22;25453;48.162;14.510;2022-07-11T05:40:19;18.70;56.30
39777;DHT22;25453;48.162;14.510;2022-07-11T05:42:46;18.80;56.30
39777;DHT22;25453;48.162;14.510;2022-07-11T05:45:13;18.80;56.20
39777;DHT22;25453;48.162;14.510;2022-07-11T05:47:41;18.80;56.20
39777;DHT22;25453;48.162;14.510;2022-07-11T05:50:08;18.80;56.10
39777;DHT22;25453;48.162;14.510;2022-07-11T05:52:35;18.80;56.10
39777;DHT22;25453;48.162;14.510;2022-07-11T05:55:02;18.80;55.90
39777;DHT22;25453;48.162;14.510;2022-07-11T05:57:29;18.80;56.00
39777;DHT22;25453;48.162;14.510;2022-07-11T05:59:56;18.80;56.10
39777;DHT22;25453;48.162;14.510;2022-07-11T06:02:24;18.90;56.10
39777;DHT22;25453;48.162;14.510;2022-07-11T06:04:51;18.90;56.10
39777;DHT22;25453;48.162;14.510;2022-07-11T06:07:18;18.90;56.10
39777;DHT22;25453;48.162;14.510;2022-07-11T06:10:04;19.00;56.00
39777;DHT22;25453;48.162;14.510;2022-07-11T06:12:31;19.00;55.90
39777;DHT22;25453;48.162;14.510;2022-07-11T06:14:58;19.00;55.90
39777;DHT22;25453;48.162;14.510;2022-07-11T06:17:25;19.00;56.00
39777;DHT22;25453;48.162;14.510;2022-07-11T06:19:53;19.00;55.80
39777;DHT22;25453;48.162;14.510;2022-07-11T06:22:20;19.00;55.80
39777;DHT22;25453;48.162;14.510;2022-07-11T06:24:51;19.10;55.70
39777;DHT22;25453;48.162;14.510;2022-07-11T06:27:18;19.00;55.70
39777;DHT22;25453;48.162;14.510;2022-07-11T06:29:45;19.00;55.80
39777;DHT22;25453;48.162;14.510;2022-07-11T06:32:12;19.00;55.80
39777;DHT22;25453;48.162;14.510;2022-07-11T06:34:39;19.00;55.70
39777;DHT22;25453;48.162;14.510;2022-07-11T06:37:06;19.00;55.60
39777;DHT22;25453;48.162;14.510;2022-07-11T06:39:33;19.10;55.70
39777;DHT22;25453;48.162;14.510;2022-07-11T06:42:00;19.10;55.70
39777;DHT22;25453;48.162;14.510;2022-07-11T06:44:30;19.10;55.60
39777;DHT22;25453;48.162;14.510;2022-07-11T06:46:57;19.10;55.50
39777;DHT22;25453;48.162;14.510;2022-07-11T06:49:25;19.10;55.50
39777;DHT22;25453;48.162;14.510;2022-07-11T06:51:52;19.20;55.40
39777;DHT22;25453;48.162;14.510;2022-07-11T06:54:19;19.20;55.40
39777;DHT22;25453;48.162;14.510;2022-07-11T06:56:46;19.30;55.40
39777;DHT22;25453;48.162;14.510;2022-07-11T06:59:13;19.30;55.40
39777;DHT22;25453;48.162;14.510;2022-07-11T07:01:40;19.40;55.20
39777;DHT22;25453;48.162;14.510;2022-07-11T07:04:07;19.40;55.20
39777;DHT22;25453;48.162;14.510;2022-07-11T07:06:35;19.50;55.30
39777;DHT22;25453;48.162;14.510;2022-07-11T07:09:02;19.50;55.30
39777;DHT22;25453;48.162;14.510;2022-07-11T07:11:30;19.60;55.20
39777;DHT22;25453;48.162;14.510;2022-07-11T07:13:56;19.60;55.00
39777;DHT22;25453;48.162;14.510;2022-07-11T07:16:23;19.60;55.10
39777;DHT22;25453;48.162;14.510;2022-07-11T07:18:51;19.70;55.10
39777;DHT22;25453;48.162;14.510;2022-07-11T07:21:18;19.70;55.10
39777;DHT22;25453;48.162;14.510;2022-07-11T07:23:45;19.80;55.10
39777;DHT22;25453;48.162;14.510;2022-07-11T07:26:12;19.80;55.00
39777;DHT22;25453;48.162;14.510;2022-07-11T07:28:39;19.80;54.90
39777;DHT22;25453;48.162;14.510;2022-07-11T07:31:07;19.90;54.70
39777;DHT22;25453;48.162;14.510;2022-07-11T07:33:41;19.80;54.70
39777;DHT22;25453;48.162;14.510;2022-07-11T07:36:14;19.80;54.70
39777;DHT22;25453;48.162;14.510;2022-07-11T07:38:43;19.90;54.70
39777;DHT22;25453;48.162;14.510;2022-07-11T07:41:14;19.90;54.70
39777;DHT22;25453;48.162;14.510;2022-07-11T07:43:41;19.90;54.90
39777;DHT22;25453;48.162;14.510;2022-07-11T07:46:08;20.00;54.70
39777;DHT22;25453;48.162;14.510;2022-07-11T07:48:36;20.00;54.70
39777;DHT22;25453;48.162;14.510;2022-07-11T07:51:05;20.10;54.80
39777;DHT22;25453;48.162;14.510;2022-07-11T07:53:32;20.20;54.70
39777;DHT22;25453;48.162;14.510;2022-07-11T07:55:59;20.20;54.60
39777;DHT22;25453;48.162;14.510;2022-07-11T07:58:29;20.20;54.50
39777;DHT22;25453;48.162;14.510;2022-07-11T08:00:56;20.30;54.20
39777;DHT22;25453;48.162;14.510;2022-07-11T08:03:42;20.30;54.00
39777;DHT22;25453;48.162;14.510;2022-07-11T08:06:09;20.30;54.00
39777;DHT22;25453;48.162;14.510;2022-07-11T08:08:36;20.30;54.10
39777;DHT22;25453;48.162;14.510;2022-07-11T08:11:03;20.40;54.10
39777;DHT22;25453;48.162;14.510;2022-07-11T08:13:50;20.40;54.00
39777;DHT22;25453;48.162;14.510;2022-07-11T08:16:18;20.40;54.00
39777;DHT22;25453;48.162;14.510;2022-07-11T08:18:45;20.50;54.10
39777;DHT22;25453;48.162;14.510;2022-07-11T08:21:13;20.50;54.00
39777;DHT22;25453;48.162;14.510;2022-07-11T08:23:40;20.60;53.70
39777;DHT22;25453;48.162;14.510;2022-07-11T08:26:07;20.60;53.50
39777;DHT22;25453;48.162;14.510;2022-07-11T08:28:37;20.60;53.50
39777;DHT22;25453;48.162;14.510;2022-07-11T08:31:05;20.60;53.50
39777;DHT22;25453;48.162;14.510;2022-07-11T08:33:32;20.70;53.40
39777;DHT22;25453;48.162;14.510;2022-07-11T08:35:59;20.70;53.50
39777;DHT22;25453;48.162;14.510;2022-07-11T08:38:26;20.80;53.30
39777;DHT22;25453;48.162;14.510;2022-07-11T08:40:53;20.80;53.10
39777;DHT22;25453;48.162;14.510;2022-07-11T08:43:26;20.80;53.10
39777;DHT22;25453;48.162;14.510;2022-07-11T08:45:55;20.80;52.90
39777;DHT22;25453;48.162;14.510;2022-07-11T08:48:23;20.80;53.10
39777;DHT22;25453;48.162;14.510;2022-07-11T08:50:50;20.80;53.00
39777;DHT22;25453;48.162;14.510;2022-07-11T08:53:18;20.80;53.00
39777;DHT22;25453;48.162;14.510;2022-07-11T08:55:45;20.80;53.20
39777;DHT22;25453;48.162;14.510;2022-07-11T08:58:12;20.90;53.20
39777;DHT22;25453;48.162;14.510;2022-07-11T09:00:41;20.90;53.20
39777;DHT22;25453;48.162;14.510;2022-07-11T09:03:12;20.90;53.20
39777;DHT22;25453;48.162;14.510;2022-07-11T09:05:39;20.90;53.10
39777;DHT22;25453;48.162;14.510;2022-07-11T09:08:07;20.90;53.20
39777;DHT22;25453;48.162;14.510;2022-07-11T09:10:35;20.90;53.20
39777;DHT22;25453;48.162;14.510;2022-07-11T09:13:05;20.90;53.30
39777;DHT22;25453;48.162;14.510;2022-07-11T09:15:39;20.90;53.50
39777;DHT22;25453;48.162;14.510;2022-07-11T09:21:01;21.00;53.50
39777;DHT22;25453;48.162;14.510;2022-07-11T09:23:47;21.10;53.60
39777;DHT22;25453;48.162;14.510;2022-07-11T09:26:33;21.20;53.60
39777;DHT22;25453;48.162;14.510;2022-07-11T09:29:05;21.30;53.40
39777;DHT22;25453;48.162;14.510;2022-07-11T09:31:32;21.30;53.20
39777;DHT22;25453;48.162;14.510;2022-07-11T09:34:07;21.30;53.20
39777;DHT22;25453;48.162;14.510;2022-07-11T09:36:37;21.30;53.10
39777;DHT22;25453;48.162;14.510;2022-07-11T09:39:18;21.30;53.30
39777;DHT22;25453;48.162;14.510;2022-07-11T09:41:46;21.30;53.60
39777;DHT22;25453;48.162;14.510;2022-07-11T09:46:41;21.50;53.70
39777;DHT22;25453;48.162;14.510;2022-07-11T09:49:09;21.60;53.60
39777;DHT22;25453;48.162;14.510;2022-07-11T09:51:37;21.60;53.80
39777;DHT22;25453;48.162;14.510;2022-07-11T09:54:05;21.60;53.90
39777;DHT22;25453;48.162;14.510;2022-07-11T09:56:42;21.50;54.00
39777;DHT22;25453;48.162;14.510;2022-07-11T09:59:25;21.60;54.20
39777;DHT22;25453;48.162;14.510;2022-07-11T10:01:52;21.50;54.10
39777;DHT22;25453;48.162;14.510;2022-07-11T10:04:21;21.50;54.40
39777;DHT22;25453;48.162;14.510;2022-07-11T10:06:48;21.40;54.80
39777;DHT22;25453;48.162;14.510;2022-07-11T10:09:15;21.30;55.30
39777;DHT22;25453;48.162;14.510;2022-07-11T10:11:43;21.30;55.60
39777;DHT22;25453;48.162;14.510;2022-07-11T10:14:10;21.20;55.80
39777;DHT22;25453;48.162;14.510;2022-07-11T10:19:16;21.20;55.80
39777;DHT22;25453;48.162;14.510;2022-07-11T10:22:09;21.20;55.60
39777;DHT22;25453;48.162;14.510;2022-07-11T10:27:07;21.20;55.40
39777;DHT22;25453;48.162;14.510;2022-07-11T10:29:42;21.20;55.30
39777;DHT22;25453;48.162;14.510;2022-07-11T10:32:11;21.10;55.20
39777;DHT22;25453;48.162;14.510;2022-07-11T10:34:42;21.10;55.50
39777;DHT22;25453;48.162;14.510;2022-07-11T10:37:09;21.00;55.60
39777;DHT22;25453;48.162;14.510;2022-07-11T10:39:36;21.00;55.80
39777;DHT22;25453;48.162;14.510;2022-07-11T10:42:05;20.90;55.90
39777;DHT22;25453;48.162;14.510;2022-07-11T10:44:49;20.90;56.00
39777;DHT22;25453;48.162;14.510;2022-07-11T10:47:35;20.80;56.10
39777;DHT22;25453;48.162;14.510;2022-07-11T10:50:23;20.80;56.20
39777;DHT22;25453;48.162;14.510;2022-07-11T10:52:55;20.80;56.60
39777;DHT22;25453;48.162;14.510;2022-07-11T10:58:05;21.00;57.50
39777;DHT22;25453;48.162;14.510;2022-07-11T11:00:33;21.20;57.20
39777;DHT22;25453;48.162;14.510;2022-07-11T11:03:04;21.40;57.10
39777;DHT22;25453;48.162;14.510;2022-07-11T11:10:55;21.70;56.50
39777;DHT22;25453;48.162;14.510;2022-07-11T11:13:22;21.70;56.60
39777;DHT22;25453;48.162;14.510;2022-07-11T11:15:50;21.90;56.50
39777;DHT22;25453;48.162;14.510;2022-07-11T11:23:36;22.20;56.20
39777;DHT22;25453;48.162;14.510;2022-07-11T11:26:16;22.30;55.90
39777;DHT22;25453;48.162;14.510;2022-07-11T11:28:57;22.40;55.60
39777;DHT22;25453;48.162;14.510;2022-07-11T11:31:25;22.40;55.10
39777;DHT22;25453;48.162;14.510;2022-07-11T11:33:52;22.40;54.60
39777;DHT22;25453;48.162;14.510;2022-07-11T11:36:22;22.30;54.40
39777;DHT22;25453;48.162;14.510;2022-07-11T11:38:50;22.10;54.40
39777;DHT22;25453;48.162;14.510;2022-07-11T11:41:21;22.10;54.50
39777;DHT22;25453;48.162;14.510;2022-07-11T11:43:50;22.00;55.10
39777;DHT22;25453;48.162;14.510;2022-07-11T11:46:18;22.10;55.00
39777;DHT22;25453;48.162;14.510;2022-07-11T11:48:55;22.10;55.00
39777;DHT22;25453;48.162;14.510;2022-07-11T11:51:26;22.30;54.90
39777;DHT22;25453;48.162;14.510;2022-07-11T11:53:54;22.30;54.80
39777;DHT22;25453;48.162;14.510;2022-07-11T11:56:26;22.30;54.90
39777;DHT22;25453;48.162;14.510;2022-07-11T11:58:57;22.30;54.70
39777;DHT22;25453;48.162;14.510;2022-07-11T12:01:32;22.30;54.70
39777;DHT22;25453;48.162;14.510;2022-07-11T12:06:28;22.20;54.20
39777;DHT22;25453;48.162;14.510;2022-07-11T12:09:08;22.20;54.40
39777;DHT22;25453;48.162;14.510;2022-07-11T12:11:39;22.20;54.40
39777;DHT22;25453;48.162;14.510;2022-07-11T12:14:07;22.10;54.40
39777;DHT22;25453;48.162;14.510;2022-07-11T12:16:39;22.10;54.40
39777;DHT22;25453;48.162;14.510;2022-07-11T12:19:06;22.10;54.50
39777;DHT22;25453;48.162;14.510;2022-07-11T12:21:35;22.30;54.50
39777;DHT22;25453;48.162;14.510;2022-07-11T12:24:03;22.40;54.50
39777;DHT22;25453;48.162;14.510;2022-07-11T12:26:32;22.60;54.60
39777;DHT22;25453;48.162;14.510;2022-07-11T12:34:09;23.10;52.90
39777;DHT22;25453;48.162;14.510;2022-07-11T12:36:36;23.30;52.80
39777;DHT22;25453;48.162;14.510;2022-07-11T12:39:03;23.40;52.10
39777;DHT22;25453;48.162;14.510;2022-07-11T12:41:31;23.40;51.70
39777;DHT22;25453;48.162;14.510;2022-07-11T12:43:58;23.40;51.30
39777;DHT22;25453;48.162;14.510;2022-07-11T12:46:45;23.40;50.70
39777;DHT22;25453;48.162;14.510;2022-07-11T12:49:15;23.20;50.60
39777;DHT22;25453;48.162;14.510;2022-07-11T12:51:44;23.10;50.50
39777;DHT22;25453;48.162;14.510;2022-07-11T12:54:12;23.00;50.40
39777;DHT22;25453;48.162;14.510;2022-07-11T12:56:40;22.80;50.60
39777;DHT22;25453;48.162;14.510;2022-07-11T12:59:17;22.70;51.10
39777;DHT22;25453;48.162;14.510;2022-07-11T13:01:55;22.60;51.20
39777;DHT22;25453;48.162;14.510;2022-07-11T13:04:30;22.70;51.50
39777;DHT22;25453;48.162;14.510;2022-07-11T13:06:57;22.70;51.70
39777;DHT22;25453;48.162;14.510;2022-07-11T13:09:59;22.80;51.70
39777;DHT22;25453;48.162;14.510;2022-07-11T13:12:27;23.00;51.50
39777;DHT22;25453;48.162;14.510;2022-07-11T13:14:57;23.20;51.50
39777;DHT22;25453;48.162;14.510;2022-07-11T13:17:40;23.40;51.40
39777;DHT22;25453;48.162;14.510;2022-07-11T13:20:09;23.60;51.40
39777;DHT22;25453;48.162;14.510;2022-07-11T13:22:41;23.90;50.90
39777;DHT22;25453;48.162;14.510;2022-07-11T13:25:10;24.00;49.90
39777;DHT22;25453;48.162;14.510;2022-07-11T13:27:39;24.10;49.00
39777;DHT22;25453;48.162;14.510;2022-07-11T13:30:11;24.00;48.90
39777;DHT22;25453;48.162;14.510;2022-07-11T13:32:41;23.80;48.90
39777;DHT22;25453;48.162;14.510;2022-07-11T13:35:09;23.60;49.20
39777;DHT22;25453;48.162;14.510;2022-07-11T13:37:42;23.50;49.40
39777;DHT22;25453;48.162;14.510;2022-07-11T13:40:11;23.30;49.40
39777;DHT22;25453;48.162;14.510;2022-07-11T13:42:39;23.00;49.60
39777;DHT22;25453;48.162;14.510;2022-07-11T13:45:07;22.80;50.00
39777;DHT22;25453;48.162;14.510;2022-07-11T13:47:35;22.80;50.60
39777;DHT22;25453;48.162;14.510;2022-07-11T13:50:02;22.80;51.00
39777;DHT22;25453;48.162;14.510;2022-07-11T13:52:29;22.80;51.10
39777;DHT22;25453;48.162;14.510;2022-07-11T13:54:57;22.90;51.00
39777;DHT22;25453;48.162;14.510;2022-07-11T13:57:24;22.90;51.20
39777;DHT22;25453;48.162;14.510;2022-07-11T13:59:51;23.00;51.70
39777;DHT22;25453;48.162;14.510;2022-07-11T14:02:18;23.20;51.90
39777;DHT22;25453;48.162;14.510;2022-07-11T14:04:46;23.40;51.70
39777;DHT22;25453;48.162;14.510;2022-07-11T14:07:13;23.60;51.50
39777;DHT22;25453;48.162;14.510;2022-07-11T14:09:40;23.80;50.50
39777;DHT22;25453;48.162;14.510;2022-07-11T14:12:07;23.80;50.20
39777;DHT22;25453;48.162;14.510;2022-07-11T14:14:35;23.70;50.00
39777;DHT22;25453;48.162;14.510;2022-07-11T14:17:02;23.60;50.20
39777;DHT22;25453;48.162;14.510;2022-07-11T14:19:30;23.50;50.50
39777;DHT22;25453;48.162;14.510;2022-07-11T14:21:59;23.60;50.60
39777;DHT22;25453;48.162;14.510;2022-07-11T14:24:26;23.70;50.50
39777;DHT22;25453;48.162;14.510;2022-07-11T14:26:53;23.80;50.30
39777;DHT22;25453;48.162;14.510;2022-07-11T14:29:21;24.00;50.00
39777;DHT22;25453;48.162;14.510;2022-07-11T14:31:48;24.10;49.90
39777;DHT22;25453;48.162;14.510;2022-07-11T14:34:15;24.10;49.40
39777;DHT22;25453;48.162;14.510;2022-07-11T14:36:42;24.00;49.40
39777;DHT22;25453;48.162;14.510;2022-07-11T14:39:09;23.90;49.20
39777;DHT22;25453;48.162;14.510;2022-07-11T14:41:36;23.80;49.40
39777;DHT22;25453;48.162;14.510;2022-07-11T14:44:03;23.70;49.80
39777;DHT22;25453;48.162;14.510;2022-07-11T14:46:32;23.80;49.90
39777;DHT22;25453;48.162;14.510;2022-07-11T14:48:59;23.80;49.80
39777;DHT22;25453;48.162;14.510;2022-07-11T14:51:26;23.90;49.50
39777;DHT22;25453;48.162;14.510;2022-07-11T14:54:14;24.00;49.50
39777;DHT22;25453;48.162;14.510;2022-07-11T14:56:41;24.10;49.40
39777;DHT22;25453;48.162;14.510;2022-07-11T14:59:08;24.20;49.50
39777;DHT22;25453;48.162;14.510;2022-07-11T15:01:35;24.20;49.00
39777;DHT22;25453;48.162;14.510;2022-07-11T15:04:03;24.20;49.00
39777;DHT22;25453;48.162;14.510;2022-07-11T15:06:30;24.20;49.10
39777;DHT22;25453;48.162;14.510;2022-07-11T15:09:15;24.20;49.10
39777;DHT22;25453;48.162;14.510;2022-07-11T15:12:01;24.20;48.90
39777;DHT22;25453;48.162;14.510;2022-07-11T15:14:47;24.20;49.00
39777;DHT22;25453;48.162;14.510;2022-07-11T15:17:14;24.10;49.20
39777;DHT22;25453;48.162;14.510;2022-07-11T15:19:42;24.10;49.20
39777;DHT22;25453;48.162;14.510;2022-07-11T15:22:09;24.10;49.10
39777;DHT22;25453;48.162;14.510;2022-07-11T15:24:37;24.00;49.40
39777;DHT22;25453;48.162;14.510;2022-07-11T15:27:04;24.00;49.50
39777;DHT22;25453;48.162;14.510;2022-07-11T15:29:31;23.90;49.40
39777;DHT22;25453;48.162;14.510;2022-07-11T15:31:58;23.80;49.40
39777;DHT22;25453;48.162;14.510;2022-07-11T15:34:26;23.70;49.50
39777;DHT22;25453;48.162;14.510;2022-07-11T15:36:53;23.60;49.90
39777;DHT22;25453;48.162;14.510;2022-07-11T15:39:20;23.60;50.00
39777;DHT22;25453;48.162;14.510;2022-07-11T15:41:47;23.50;50.20
39777;DHT22;25453;48.162;14.510;2022-07-11T15:44:14;23.40;50.40
39777;DHT22;25453;48.162;14.510;2022-07-11T15:46:41;23.40;50.30
39777;DHT22;25453;48.162;14.510;2022-07-11T15:49:09;23.30;50.20
39777;DHT22;25453;48.162;14.510;2022-07-11T15:51:36;23.10;50.60
39777;DHT22;25453;48.162;14.510;2022-07-11T15:54:03;23.10;50.80
39777;DHT22;25453;48.162;14.510;2022-07-11T15:56:30;23.00;50.90
39777;DHT22;25453;48.162;14.510;2022-07-11T15:58:58;23.00;51.10